createdAt,value
2023-05-14T00:00:42.224Z,99.00
2023-05-14T00:03:10.787Z,98.60
2023-05-14T00:05:39.029Z,99.10
2023-05-14T00:08:06.974Z,99.10
2023-05-14T00:10:35.094Z,99.80
2023-05-14T00:13:03.136Z,99.30
2023-05-14T00:15:32.898Z,99.60
2023-05-14T00:18:02.217Z,99.90
2023-05-14T00:20:30.210Z,99.80
2023-05-14T00:22:58.383Z,99.90
2023-05-14T00:25:26.483Z,99.90
2023-05-14T00:27:54.979Z,99.90
2023-05-14T00:30:23.067Z,99.90
2023-05-14T00:32:52.230Z,99.90
2023-05-14T00:35:21.801Z,99.90
2023-05-14T00:37:49.839Z,99.90
2023-05-14T00:40:18.142Z,99.90
2023-05-14T00:42:46.290Z,99.90
2023-05-14T00:45:14.376Z,99.90
2023-05-14T00:47:42.503Z,99.90
2023-05-14T00:50:12.702Z,99.90
2023-05-14T00:52:41.384Z,99.90
2023-05-14T00:55:09.757Z,99.90
2023-05-14T00:57:38.011Z,99.90
2023-05-14T01:00:06.901Z,99.90
2023-05-14T01:02:35.010Z,99.90
2023-05-14T01:05:03.411Z,99.90
2023-05-14T01:07:43.820Z,99.90
2023-05-14T01:10:11.704Z,99.90
2023-05-14T01:12:43.514Z,99.90
2023-05-14T01:15:13.050Z,99.90
2023-05-14T01:17:47.110Z,99.90
2023-05-14T01:20:15.497Z,99.90
2023-05-14T01:22:43.485Z,99.90
2023-05-14T01:25:11.470Z,99.90
2023-05-14T01:27:43.160Z,99.90
2023-05-14T01:30:17.310Z,99.90
2023-05-14T01:32:47.977Z,99.90
2023-05-14T01:35:18.203Z,99.90
2023-05-14T01:37:46.938Z,99.90
2023-05-14T01:40:15.941Z,99.90
2023-05-14T01:42:44.399Z,99.90
2023-05-14T01:45:12.373Z,99.90
2023-05-14T01:47:40.622Z,99.90
2023-05-14T01:50:09.352Z,99.90
2023-05-14T01:52:37.339Z,99.90
2023-05-14T01:55:06.214Z,99.90
2023-05-14T01:57:34.394Z,99.90
2023-05-14T02:00:02.516Z,99.90
2023-05-14T02:02:33.082Z,99.90
2023-05-14T02:05:01.356Z,99.90
2023-05-14T02:07:29.635Z,99.90
2023-05-14T02:09:57.611Z,99.90
2023-05-14T02:12:26.776Z,99.90
2023-05-14T02:14:54.744Z,99.90
2023-05-14T02:17:22.994Z,99.90
2023-05-14T02:19:51.119Z,99.90
2023-05-14T02:22:19.331Z,99.90
2023-05-14T02:24:47.330Z,99.90
2023-05-14T02:27:15.405Z,99.90
2023-05-14T02:29:43.332Z,99.90
2023-05-14T02:32:11.499Z,99.90
2023-05-14T02:34:39.638Z,99.90
2023-05-14T02:37:07.696Z,99.90
2023-05-14T02:39:35.723Z,99.90
2023-05-14T02:42:04.021Z,99.90
2023-05-14T02:44:32.763Z,99.90
2023-05-14T02:47:00.765Z,99.90
2023-05-14T02:49:28.969Z,99.90
2023-05-14T02:51:57.213Z,99.90
2023-05-14T02:54:25.248Z,99.90
2023-05-14T02:56:53.441Z,99.90
2023-05-14T02:59:21.636Z,99.90
2023-05-14T03:01:51.330Z,99.90
2023-05-14T03:04:19.861Z,99.90
2023-05-14T03:06:47.883Z,99.90
2023-05-14T03:09:15.876Z,99.90
2023-05-14T03:11:44.084Z,99.90
2023-05-14T03:14:12.037Z,99.90
2023-05-14T03:16:42.639Z,99.90
2023-05-14T03:19:10.859Z,99.90
2023-05-14T03:21:38.961Z,99.90
2023-05-14T03:24:07.427Z,99.90
2023-05-14T03:26:35.592Z,99.90
2023-05-14T03:29:04.421Z,99.90
2023-05-14T03:31:32.759Z,99.90
2023-05-14T03:34:01.400Z,99.90
2023-05-14T03:36:29.702Z,99.90
2023-05-14T03:38:57.616Z,99.90
2023-05-14T03:41:26.620Z,99.90
2023-05-14T03:43:54.670Z,99.90
2023-05-14T03:46:22.639Z,99.90
2023-05-14T03:48:50.828Z,99.90
2023-05-14T03:51:18.945Z,99.90
2023-05-14T03:53:46.839Z,99.90
2023-05-14T03:56:15.342Z,99.90
2023-05-14T03:58:43.755Z,99.90
2023-05-14T04:01:11.827Z,99.90
2023-05-14T04:03:42.364Z,99.90
2023-05-14T04:06:12.450Z,99.90
2023-05-14T04:08:40.418Z,99.90
2023-05-14T04:11:08.816Z,99.90
2023-05-14T04:13:36.883Z,99.90
2023-05-14T04:16:05.135Z,99.90
2023-05-14T04:18:35.740Z,99.90
2023-05-14T04:21:03.753Z,99.90
2023-05-14T04:23:32.449Z,99.90
2023-05-14T04:26:00.631Z,99.90
2023-05-14T04:28:28.512Z,99.90
2023-05-14T04:30:56.621Z,99.90
2023-05-14T04:33:24.710Z,99.90
2023-05-14T04:35:53.094Z,99.90
2023-05-14T04:38:21.091Z,99.90
2023-05-14T04:40:49.241Z,99.70
2023-05-14T04:43:17.995Z,98.80
2023-05-14T04:45:46.276Z,97.80
2023-05-14T04:48:14.211Z,97.00
2023-05-14T04:50:42.243Z,95.90
2023-05-14T04:53:10.723Z,95.70
2023-05-14T04:55:38.811Z,94.70
2023-05-14T04:58:06.808Z,94.30
2023-05-14T05:00:34.826Z,93.60
2023-05-14T05:03:05.252Z,93.20
2023-05-14T05:05:33.314Z,93.20
2023-05-14T05:08:01.272Z,93.30
2023-05-14T05:10:29.331Z,93.10
2023-05-14T05:12:57.448Z,93.50
2023-05-14T05:15:26.499Z,93.80
2023-05-14T05:17:54.904Z,94.30
2023-05-14T05:20:23.794Z,94.90
2023-05-14T05:22:52.118Z,95.10
2023-05-14T05:25:20.138Z,95.30
2023-05-14T05:27:48.268Z,95.80
2023-05-14T05:30:16.652Z,96.00
2023-05-14T05:32:44.685Z,96.00
2023-05-14T05:35:12.688Z,95.30
2023-05-14T05:37:40.814Z,95.00
2023-05-14T05:40:09.584Z,95.30
2023-05-14T05:42:37.612Z,95.70
2023-05-14T05:45:06.095Z,96.10
2023-05-14T05:47:34.201Z,95.50
2023-05-14T05:50:02.331Z,94.90
2023-05-14T05:52:30.422Z,94.80
2023-05-14T05:54:58.363Z,95.00
2023-05-14T05:57:27.645Z,94.80
2023-05-14T05:59:55.659Z,93.60
2023-05-14T06:02:23.671Z,93.00
2023-05-14T06:04:51.829Z,92.90
2023-05-14T06:07:20.119Z,93.10
2023-05-14T06:09:48.200Z,92.60
2023-05-14T06:12:16.650Z,92.80
2023-05-14T06:14:44.597Z,92.70
2023-05-14T06:17:12.738Z,92.60
2023-05-14T06:19:40.836Z,91.90
2023-05-14T06:22:08.841Z,92.20
2023-05-14T06:24:36.864Z,92.00
2023-05-14T06:27:04.985Z,91.60
2023-05-14T06:29:33.040Z,90.90
2023-05-14T06:32:04.845Z,90.30
2023-05-14T06:34:33.165Z,88.10
2023-05-14T06:37:03.166Z,85.50
2023-05-14T06:39:31.252Z,85.20
2023-05-14T06:41:59.221Z,85.10
2023-05-14T06:44:27.522Z,84.10
2023-05-14T06:46:55.462Z,83.80
2023-05-14T06:49:23.733Z,83.70
2023-05-14T06:51:51.700Z,82.00
2023-05-14T06:54:20.842Z,80.60
2023-05-14T06:56:48.859Z,80.20
2023-05-14T06:59:16.988Z,80.10
2023-05-14T07:01:45.037Z,79.50
2023-05-14T07:04:13.200Z,79.60
2023-05-14T07:06:41.195Z,79.00
2023-05-14T07:09:09.359Z,79.00
2023-05-14T07:11:37.406Z,79.30
2023-05-14T07:14:05.483Z,78.90
2023-05-14T07:16:33.487Z,78.70
2023-05-14T07:19:01.553Z,79.10
2023-05-14T07:21:29.760Z,79.00
2023-05-14T07:23:57.814Z,78.50
2023-05-14T07:26:26.770Z,78.50
2023-05-14T07:28:54.690Z,78.20
2023-05-14T07:31:22.742Z,77.90
2023-05-14T07:33:50.869Z,77.20
2023-05-14T07:36:18.901Z,76.90
2023-05-14T07:38:47.063Z,76.20
2023-05-14T07:41:15.055Z,75.70
2023-05-14T07:43:43.216Z,75.30
2023-05-14T07:46:11.298Z,74.80
2023-05-14T07:48:39.435Z,74.00
2023-05-14T07:51:07.433Z,74.10
2023-05-14T07:53:35.581Z,73.80
2023-05-14T07:56:03.483Z,71.90
2023-05-14T07:58:35.657Z,72.10
2023-05-14T08:01:07.443Z,71.80
2023-05-14T08:03:35.654Z,66.20
2023-05-14T08:06:04.396Z,67.50
2023-05-14T08:08:32.489Z,68.50
2023-05-14T08:11:00.593Z,70.30
2023-05-14T08:13:28.599Z,72.10
2023-05-14T08:15:56.993Z,72.20
2023-05-14T08:18:25.047Z,73.10
2023-05-14T08:20:53.646Z,74.40
2023-05-14T08:23:21.763Z,75.30
2023-05-14T08:25:49.943Z,76.00
2023-05-14T08:28:18.037Z,77.20
2023-05-14T08:30:46.374Z,77.40
2023-05-14T08:33:14.371Z,78.60
2023-05-14T08:35:42.321Z,80.60
2023-05-14T08:38:10.289Z,81.40
2023-05-14T08:40:38.321Z,82.10
2023-05-14T08:43:06.962Z,83.60
2023-05-14T08:45:35.596Z,85.10
2023-05-14T08:48:06.196Z,85.50
2023-05-14T08:50:34.374Z,84.40
2023-05-14T08:53:02.402Z,82.70
2023-05-14T08:55:31.055Z,81.10
2023-05-14T08:57:59.057Z,81.80
2023-05-14T09:00:27.569Z,82.70
2023-05-14T09:02:56.366Z,82.30
2023-05-14T09:05:24.678Z,82.60
2023-05-14T09:07:52.760Z,82.70
2023-05-14T09:10:22.164Z,82.50
2023-05-14T09:12:50.421Z,82.80
2023-05-14T09:15:18.683Z,81.50
2023-05-14T09:17:48.410Z,78.20
2023-05-14T09:20:16.494Z,77.90
2023-05-14T09:22:44.541Z,78.70
2023-05-14T09:25:13.418Z,77.10
2023-05-14T09:27:41.424Z,78.40
2023-05-14T09:30:10.982Z,79.20
2023-05-14T09:32:40.396Z,80.50
2023-05-14T09:35:12.391Z,80.90
2023-05-14T09:37:42.227Z,82.40
2023-05-14T09:40:10.990Z,83.80
2023-05-14T09:42:39.110Z,84.30
2023-05-14T09:45:10.569Z,83.70
2023-05-14T09:47:39.751Z,84.00
2023-05-14T09:50:08.166Z,80.70
2023-05-14T09:52:36.289Z,81.60
2023-05-14T09:55:04.683Z,81.70
2023-05-14T09:57:32.796Z,81.20
2023-05-14T10:00:00.748Z,79.50
2023-05-14T10:02:38.298Z,77.30
2023-05-14T10:05:07.247Z,74.40
2023-05-14T10:07:43.388Z,74.90
2023-05-14T10:10:16.242Z,77.60
2023-05-14T10:12:46.812Z,76.80
2023-05-14T10:15:20.159Z,72.50
2023-05-14T10:17:56.623Z,73.90
2023-05-14T10:20:25.557Z,75.90
2023-05-14T10:22:53.770Z,76.00
2023-05-14T10:25:21.980Z,76.30
2023-05-14T10:27:50.152Z,77.40
2023-05-14T10:30:24.758Z,82.00
2023-05-14T10:33:11.887Z,83.10
2023-05-14T10:35:58.532Z,85.70
2023-05-14T10:38:27.660Z,79.20
2023-05-14T10:41:18.237Z,79.00
2023-05-14T10:43:46.325Z,79.40
2023-05-14T10:46:14.765Z,79.20
2023-05-14T10:48:43.641Z,77.20
2023-05-14T10:51:12.375Z,78.20
2023-05-14T10:53:41.851Z,78.20
2023-05-14T10:56:10.726Z,76.30
2023-05-14T10:58:39.704Z,76.40
2023-05-14T11:01:08.647Z,76.60
2023-05-14T11:03:58.711Z,76.80
2023-05-14T11:06:26.878Z,74.30
2023-05-14T11:08:54.821Z,73.60
2023-05-14T11:11:25.030Z,71.30
2023-05-14T11:13:54.209Z,70.70
2023-05-14T11:16:24.576Z,66.70
2023-05-14T11:19:03.994Z,67.70
2023-05-14T11:21:33.345Z,67.60
2023-05-14T11:24:01.798Z,67.60
2023-05-14T11:26:29.871Z,69.30
2023-05-14T11:28:57.978Z,70.40
2023-05-14T11:31:26.121Z,71.10
2023-05-14T11:33:54.691Z,69.50
2023-05-14T11:36:22.769Z,69.90
2023-05-14T11:38:52.757Z,72.80
2023-05-14T11:41:23.537Z,72.10
2023-05-14T11:43:51.784Z,76.30
2023-05-14T11:46:20.107Z,72.20
2023-05-14T11:48:48.367Z,73.70
2023-05-14T11:51:16.432Z,75.20
2023-05-14T11:53:45.700Z,74.00
2023-05-14T11:56:13.698Z,73.70
2023-05-14T11:58:41.953Z,74.20
2023-05-14T12:01:13.780Z,70.60
2023-05-14T12:03:42.865Z,71.40
2023-05-14T12:06:11.144Z,69.80
2023-05-14T12:08:39.109Z,69.10
2023-05-14T12:11:07.464Z,71.50
2023-05-14T12:13:36.895Z,74.70
2023-05-14T12:16:05.849Z,73.30
2023-05-14T12:18:34.141Z,70.50
2023-05-14T12:21:05.668Z,71.50
2023-05-14T12:23:33.758Z,73.30
2023-05-14T12:26:02.870Z,72.40
2023-05-14T12:28:31.093Z,73.80
2023-05-14T12:30:59.675Z,75.20
2023-05-14T12:33:27.842Z,73.30
2023-05-14T12:36:14.090Z,73.90
2023-05-14T12:38:49.578Z,74.10
2023-05-14T12:41:18.322Z,74.60
2023-05-14T12:43:48.045Z,75.10
2023-05-14T12:46:17.038Z,76.40
2023-05-14T12:48:49.261Z,81.80
2023-05-14T12:51:18.258Z,83.40
2023-05-14T12:53:46.431Z,77.50
2023-05-14T12:56:14.529Z,78.50
2023-05-14T12:58:42.617Z,81.80
2023-05-14T13:01:10.704Z,84.50
2023-05-14T13:03:38.690Z,84.80
2023-05-14T13:06:07.008Z,80.40
2023-05-14T13:08:35.447Z,84.40
2023-05-14T13:11:03.679Z,86.60
2023-05-14T13:13:31.774Z,86.60
2023-05-14T13:16:00.148Z,88.20
2023-05-14T13:18:28.192Z,87.90
2023-05-14T13:20:56.325Z,84.10
2023-05-14T13:23:24.787Z,84.50
2023-05-14T13:25:52.935Z,78.00
2023-05-14T13:28:21.078Z,78.70
2023-05-14T13:31:04.246Z,79.20
2023-05-14T13:33:33.011Z,80.60
2023-05-14T13:36:01.036Z,81.50
2023-05-14T13:38:29.584Z,84.40
2023-05-14T13:41:02.242Z,84.30
2023-05-14T13:43:34.155Z,82.50
2023-05-14T13:46:03.103Z,88.60
2023-05-14T13:48:34.206Z,90.50
2023-05-14T13:51:02.135Z,91.00
2023-05-14T13:53:30.818Z,91.70
2023-05-14T13:56:01.197Z,92.00
2023-05-14T13:58:29.210Z,92.20
2023-05-14T14:00:57.435Z,92.60
2023-05-14T14:03:25.793Z,92.60
2023-05-14T14:05:53.864Z,92.60
2023-05-14T14:08:24.126Z,92.10
2023-05-14T14:10:53.405Z,91.40
2023-05-14T14:13:23.374Z,90.70
2023-05-14T14:15:51.631Z,88.90
2023-05-14T14:18:19.956Z,87.80
2023-05-14T14:20:48.134Z,87.50
2023-05-14T14:23:16.209Z,87.00
2023-05-14T14:25:44.384Z,86.50
2023-05-14T14:28:12.371Z,87.10
2023-05-14T14:30:40.335Z,87.20
2023-05-14T14:33:08.311Z,89.00
2023-05-14T14:35:37.865Z,90.50
2023-05-14T14:38:06.225Z,90.60
2023-05-14T14:40:34.576Z,89.90
2023-05-14T14:43:02.718Z,90.60
2023-05-14T14:45:31.036Z,91.20
2023-05-14T14:48:17.839Z,91.30
2023-05-14T14:50:45.869Z,91.60
2023-05-14T14:53:13.851Z,90.70
2023-05-14T14:55:42.022Z,90.60
2023-05-14T14:58:10.064Z,90.60
2023-05-14T15:00:38.333Z,90.20
2023-05-14T15:03:06.860Z,90.30
2023-05-14T15:05:34.974Z,90.60
2023-05-14T15:08:03.118Z,90.40
2023-05-14T15:10:31.496Z,90.80
2023-05-14T15:13:00.127Z,90.70
2023-05-14T15:15:28.183Z,90.60
2023-05-14T15:17:56.382Z,90.90
2023-05-14T15:20:24.424Z,91.30
2023-05-14T15:22:54.009Z,92.20
2023-05-14T15:25:23.108Z,92.70
2023-05-14T15:27:51.679Z,93.30
2023-05-14T15:30:19.842Z,94.20
2023-05-14T15:32:47.897Z,94.40
2023-05-14T15:35:16.113Z,94.70
2023-05-14T15:37:45.108Z,95.60
2023-05-14T15:40:13.618Z,96.00
2023-05-14T15:42:42.544Z,96.50
2023-05-14T15:45:11.342Z,96.90
2023-05-14T15:47:39.734Z,97.00
2023-05-14T15:50:08.319Z,97.10
2023-05-14T15:52:36.917Z,96.80
2023-05-14T15:55:06.211Z,97.20
2023-05-14T15:57:34.734Z,97.30
2023-05-14T16:00:10.347Z,98.10
2023-05-14T16:02:39.148Z,97.90
2023-05-14T16:05:07.979Z,98.70
2023-05-14T16:07:36.433Z,98.80
2023-05-14T16:10:04.564Z,99.20
2023-05-14T16:12:32.859Z,99.50
2023-05-14T16:15:00.880Z,99.80
2023-05-14T16:17:29.990Z,99.90
2023-05-14T16:19:58.202Z,99.90
2023-05-14T16:22:26.151Z,99.90
2023-05-14T16:24:54.107Z,99.90
2023-05-14T16:27:22.662Z,99.90
2023-05-14T16:29:50.970Z,99.90
2023-05-14T16:32:19.427Z,99.90
2023-05-14T16:34:50.222Z,99.90
2023-05-14T16:37:20.343Z,99.90
2023-05-14T16:39:48.795Z,99.90
2023-05-14T16:42:16.912Z,99.90
2023-05-14T16:44:45.132Z,99.90
2023-05-14T16:47:13.478Z,99.90
2023-05-14T16:49:41.608Z,99.90
2023-05-14T16:52:09.593Z,99.90
2023-05-14T16:54:37.624Z,99.90
2023-05-14T16:57:06.418Z,99.90
2023-05-14T16:59:34.495Z,99.90
2023-05-14T17:02:02.655Z,99.90
2023-05-14T17:04:31.025Z,99.90
2023-05-14T17:06:59.222Z,99.90
2023-05-14T17:09:27.455Z,99.90
2023-05-14T17:11:55.557Z,99.90
2023-05-14T17:14:23.575Z,99.90
2023-05-14T17:16:51.699Z,99.90
2023-05-14T17:19:20.013Z,99.90
2023-05-14T17:21:48.090Z,99.90
2023-05-14T17:24:16.044Z,99.90
2023-05-14T17:26:44.395Z,99.90
2023-05-14T17:29:12.446Z,99.90
2023-05-14T17:31:40.565Z,99.90
2023-05-14T17:34:08.676Z,99.90
2023-05-14T17:36:36.752Z,99.90
2023-05-14T17:39:04.873Z,99.90
2023-05-14T17:41:32.922Z,99.90
2023-05-14T17:44:01.027Z,99.90
2023-05-14T17:46:29.304Z,99.90
2023-05-14T17:48:58.819Z,99.90
2023-05-14T17:51:26.821Z,99.90
2023-05-14T17:53:55.055Z,99.90
2023-05-14T17:56:22.988Z,99.90
2023-05-14T17:58:51.234Z,99.90
2023-05-14T18:01:19.541Z,99.90
2023-05-14T18:03:47.985Z,99.90
2023-05-14T18:06:16.209Z,99.90
2023-05-14T18:08:44.435Z,99.90
2023-05-14T18:11:12.416Z,99.90
2023-05-14T18:13:40.560Z,99.90
2023-05-14T18:16:08.720Z,99.90
2023-05-14T18:18:36.769Z,99.90
2023-05-14T18:21:05.072Z,99.90
2023-05-14T18:23:33.372Z,99.90
2023-05-14T18:26:01.989Z,99.90
2023-05-14T18:28:30.102Z,99.90
2023-05-14T18:30:58.218Z,99.90
2023-05-14T18:33:26.359Z,99.90
2023-05-14T18:35:54.559Z,99.90
2023-05-14T18:38:22.582Z,99.90
2023-05-14T18:40:50.541Z,99.90
2023-05-14T18:43:20.070Z,99.90
2023-05-14T18:45:48.709Z,99.90
2023-05-14T18:48:16.949Z,99.90
2023-05-14T18:50:44.993Z,99.90
2023-05-14T18:53:12.958Z,99.90
2023-05-14T18:55:41.117Z,99.90
2023-05-14T18:58:09.114Z,99.90
2023-05-14T19:00:37.118Z,99.90
2023-05-14T19:03:05.107Z,99.90
2023-05-14T19:05:33.262Z,99.90
2023-05-14T19:08:01.434Z,99.90
2023-05-14T19:10:29.808Z,99.90
2023-05-14T19:12:58.114Z,99.90
2023-05-14T19:15:27.683Z,99.90
2023-05-14T19:17:55.818Z,99.90
2023-05-14T19:20:23.875Z,99.90
2023-05-14T19:22:52.039Z,99.90
2023-05-14T19:25:20.331Z,99.90
2023-05-14T19:27:51.471Z,99.90
2023-05-14T19:30:20.291Z,99.90
2023-05-14T19:32:48.458Z,99.90
2023-05-14T19:35:16.942Z,99.90
2023-05-14T19:37:44.970Z,99.90
2023-05-14T19:40:13.282Z,99.90
2023-05-14T19:42:41.253Z,99.90
2023-05-14T19:45:09.357Z,99.90
2023-05-14T19:47:37.831Z,99.90
2023-05-14T19:50:06.217Z,99.90
2023-05-14T19:52:34.181Z,99.90
2023-05-14T19:55:02.213Z,99.90
2023-05-14T19:57:31.744Z,99.90
2023-05-14T20:00:00.148Z,99.90
2023-05-14T20:02:28.473Z,99.90
2023-05-14T20:04:57.080Z,99.90
2023-05-14T20:07:25.545Z,99.90
2023-05-14T20:09:53.589Z,99.90
2023-05-14T20:12:21.629Z,99.90
2023-05-14T20:14:52.174Z,99.90
2023-05-14T20:17:21.534Z,99.90
2023-05-14T20:19:49.551Z,99.90
2023-05-14T20:22:17.494Z,99.90
2023-05-14T20:24:45.940Z,99.90
2023-05-14T20:27:14.068Z,99.90
2023-05-14T20:29:42.125Z,99.90
2023-05-14T20:32:10.181Z,99.90
2023-05-14T20:34:38.228Z,99.90
2023-05-14T20:37:07.217Z,99.90
2023-05-14T20:39:35.346Z,99.90
2023-05-14T20:42:03.373Z,99.90
2023-05-14T20:44:31.388Z,99.90
2023-05-14T20:46:59.394Z,99.90
2023-05-14T20:49:27.393Z,99.90
2023-05-14T20:51:55.623Z,99.90
2023-05-14T20:54:23.578Z,99.90
2023-05-14T20:56:51.588Z,99.90
2023-05-14T20:59:19.737Z,99.90
2023-05-14T21:01:47.811Z,99.90
2023-05-14T21:04:16.047Z,99.90
2023-05-14T21:06:44.489Z,99.90
2023-05-14T21:09:12.701Z,99.90
2023-05-14T21:11:40.752Z,99.90
2023-05-14T21:14:09.010Z,99.90
2023-05-14T21:16:37.138Z,99.90
2023-05-14T21:19:05.280Z,99.90
2023-05-14T21:21:33.437Z,99.90
2023-05-14T21:24:01.408Z,99.90
2023-05-14T21:26:31.833Z,99.90
2023-05-14T21:29:00.172Z,99.90
2023-05-14T21:31:28.084Z,99.90
2023-05-14T21:33:56.335Z,99.90
2023-05-14T21:36:24.479Z,99.90
2023-05-14T21:38:53.859Z,99.90
2023-05-14T21:41:22.138Z,99.90
2023-05-14T21:43:50.215Z,99.90
2023-05-14T21:46:18.536Z,99.90
2023-05-14T21:48:46.827Z,99.90
2023-05-14T21:51:15.005Z,99.90
2023-05-14T21:53:43.059Z,99.90
2023-05-14T21:56:11.092Z,99.90
2023-05-14T21:58:39.282Z,99.90
2023-05-14T22:01:07.889Z,99.90
2023-05-14T22:03:36.540Z,99.90
2023-05-14T22:06:05.054Z,99.90
2023-05-14T22:08:33.109Z,99.90
2023-05-14T22:11:01.199Z,99.90
2023-05-14T22:13:29.271Z,99.90
2023-05-14T22:16:09.208Z,99.90
2023-05-14T22:18:40.966Z,99.90
2023-05-14T22:21:08.961Z,99.90
2023-05-14T22:23:37.304Z,99.90
2023-05-14T22:26:05.656Z,99.90
2023-05-14T22:28:33.623Z,99.90
2023-05-14T22:31:01.661Z,99.90
2023-05-14T22:33:29.833Z,99.90
2023-05-14T22:35:57.789Z,99.90
2023-05-14T22:38:25.748Z,99.90
2023-05-14T22:40:54.009Z,99.90
2023-05-14T22:43:21.986Z,99.90
2023-05-14T22:45:50.045Z,99.90
2023-05-14T22:48:18.376Z,99.90
2023-05-14T22:50:46.395Z,99.90
2023-05-14T22:53:14.397Z,99.90
2023-05-14T22:55:42.434Z,99.90
2023-05-14T22:58:10.764Z,99.90
2023-05-14T23:00:38.661Z,99.90
2023-05-14T23:03:07.251Z,99.90
2023-05-14T23:05:35.345Z,99.90
2023-05-14T23:08:03.392Z,99.90
2023-05-14T23:10:31.695Z,99.90
2023-05-14T23:12:59.861Z,99.90
2023-05-14T23:15:28.057Z,99.90
2023-05-14T23:17:56.162Z,99.90
2023-05-14T23:20:24.383Z,99.90
2023-05-14T23:22:52.573Z,99.90
2023-05-14T23:25:20.724Z,99.90
2023-05-14T23:27:50.413Z,99.90
2023-05-14T23:30:18.468Z,99.90
2023-05-14T23:32:46.495Z,99.90
2023-05-14T23:35:14.467Z,99.90
2023-05-14T23:37:47.611Z,99.90
2023-05-14T23:40:16.152Z,99.90
2023-05-14T23:42:45.242Z,99.90
2023-05-14T23:45:13.554Z,99.90
2023-05-14T23:47:41.701Z,99.90
2023-05-14T23:50:10.045Z,99.90
2023-05-14T23:52:38.183Z,99.90
2023-05-14T23:55:06.870Z,99.90
2023-05-14T23:57:34.817Z,99.90
